sensor_id;sensor_type;location;lat;lon;timestamp;temperature;humidity
12039;DHT22;6080;48.818;9.526;2022-10-19T00:00:50;14.10;99.90
12039;DHT22;6080;48.818;9.526;2022-10-19T00:03:24;14.10;99.90
12039;DHT22;6080;48.818;9.526;2022-10-19T00:05:50;14.10;99.90
12039;DHT22;6080;48.818;9.526;2022-10-19T00:08:16;14.10;99.90
12039;DHT22;6080;48.818;9.526;2022-10-19T00:10:42;14.10;99.90
12039;DHT22;6080;48.818;9.526;2022-10-19T00:13:07;14.00;99.90
12039;DHT22;6080;48.818;9.526;2022-10-19T00:15:37;14.00;99.90
12039;DHT22;6080;48.818;9.526;2022-10-19T00:18:04;14.00;99.90
12039;DHT22;6080;48.818;9.526;2022-10-19T00:20:30;14.00;99.90
12039;DHT22;6080;48.818;9.526;2022-10-19T00:22:56;14.00;99.90
12039;DHT22;6080;48.818;9.526;2022-10-19T00:25:22;14.00;99.90
12039;DHT22;6080;48.818;9.526;2022-10-19T00:27:47;14.00;99.90
12039;DHT22;6080;48.818;9.526;2022-10-19T00:30:13;14.10;99.90
12039;DHT22;6080;48.818;9.526;2022-10-19T00:32:39;14.10;99.90
12039;DHT22;6080;48.818;9.526;2022-10-19T00:35:05;14.10;99.90
12039;DHT22;6080;48.818;9.526;2022-10-19T00:37:31;14.20;99.90
12039;DHT22;6080;48.818;9.526;2022-10-19T00:39:57;14.10;99.90
12039;DHT22;6080;48.818;9.526;2022-10-19T00:42:23;14.00;99.90
12039;DHT22;6080;48.818;9.526;2022-10-19T00:47:15;14.00;99.90
12039;DHT22;6080;48.818;9.526;2022-10-19T00:49:43;13.90;99.90
12039;DHT22;6080;48.818;9.526;2022-10-19T00:52:15;13.90;99.90
12039;DHT22;6080;48.818;9.526;2022-10-19T00:54:43;13.90;99.90
12039;DHT22;6080;48.818;9.526;2022-10-19T00:57:11;14.00;99.90
12039;DHT22;6080;48.818;9.526;2022-10-19T00:59:38;14.00;99.90
12039;DHT22;6080;48.818;9.526;2022-10-19T01:02:05;14.00;99.90
12039;DHT22;6080;48.818;9.526;2022-10-19T01:04:34;14.10;99.90
12039;DHT22;6080;48.818;9.526;2022-10-19T01:07:03;14.10;99.90
12039;DHT22;6080;48.818;9.526;2022-10-19T01:09:29;14.00;99.90
12039;DHT22;6080;48.818;9.526;2022-10-19T01:12:13;14.10;99.90
12039;DHT22;6080;48.818;9.526;2022-10-19T01:15:05;14.10;99.90
12039;DHT22;6080;48.818;9.526;2022-10-19T01:18:02;14.10;99.90
12039;DHT22;6080;48.818;9.526;2022-10-19T01:20:36;14.10;99.90
12039;DHT22;6080;48.818;9.526;2022-10-19T01:31:52;14.20;99.90
12039;DHT22;6080;48.818;9.526;2022-10-19T01:39:40;14.20;99.90
12039;DHT22;6080;48.818;9.526;2022-10-19T01:44:58;14.20;99.90
12039;DHT22;6080;48.818;9.526;2022-10-19T01:47:37;14.20;99.90
12039;DHT22;6080;48.818;9.526;2022-10-19T01:50:13;14.20;99.90
12039;DHT22;6080;48.818;9.526;2022-10-19T01:52:41;14.20;99.90
12039;DHT22;6080;48.818;9.526;2022-10-19T01:55:09;14.30;99.90
12039;DHT22;6080;48.818;9.526;2022-10-19T01:57:48;14.30;99.90
12039;DHT22;6080;48.818;9.526;2022-10-19T02:00:15;14.30;99.90
12039;DHT22;6080;48.818;9.526;2022-10-19T02:02:45;14.30;99.90
12039;DHT22;6080;48.818;9.526;2022-10-19T02:05:12;14.30;99.90
12039;DHT22;6080;48.818;9.526;2022-10-19T02:07:41;14.30;99.90
12039;DHT22;6080;48.818;9.526;2022-10-19T02:10:10;14.30;99.90
12039;DHT22;6080;48.818;9.526;2022-10-19T02:12:36;14.40;99.90
12039;DHT22;6080;48.818;9.526;2022-10-19T02:15:09;14.40;99.90
12039;DHT22;6080;48.818;9.526;2022-10-19T02:17:44;14.30;99.90
12039;DHT22;6080;48.818;9.526;2022-10-19T02:20:11;14.30;99.90
12039;DHT22;6080;48.818;9.526;2022-10-19T02:22:38;14.30;99.90
12039;DHT22;6080;48.818;9.526;2022-10-19T02:25:05;14.30;99.90
12039;DHT22;6080;48.818;9.526;2022-10-19T02:27:32;14.30;99.90
12039;DHT22;6080;48.818;9.526;2022-10-19T02:29:58;14.30;99.90
12039;DHT22;6080;48.818;9.526;2022-10-19T02:32:24;14.30;99.90
12039;DHT22;6080;48.818;9.526;2022-10-19T02:34:50;14.30;99.90
12039;DHT22;6080;48.818;9.526;2022-10-19T02:37:16;14.30;99.90
12039;DHT22;6080;48.818;9.526;2022-10-19T02:39:42;14.30;99.90
12039;DHT22;6080;48.818;9.526;2022-10-19T02:42:14;14.40;99.90
12039;DHT22;6080;48.818;9.526;2022-10-19T02:44:49;14.30;99.90
12039;DHT22;6080;48.818;9.526;2022-10-19T02:47:20;14.40;99.90
12039;DHT22;6080;48.818;9.526;2022-10-19T02:49:48;14.40;99.90
12039;DHT22;6080;48.818;9.526;2022-10-19T02:52:14;14.40;99.90
12039;DHT22;6080;48.818;9.526;2022-10-19T02:54:42;14.30;99.90
12039;DHT22;6080;48.818;9.526;2022-10-19T02:57:17;14.30;99.90
12039;DHT22;6080;48.818;9.526;2022-10-19T02:59:45;14.30;99.90
12039;DHT22;6080;48.818;9.526;2022-10-19T03:02:12;14.20;99.90
12039;DHT22;6080;48.818;9.526;2022-10-19T03:04:38;14.20;99.90
12039;DHT22;6080;48.818;9.526;2022-10-19T03:07:03;14.10;99.90
12039;DHT22;6080;48.818;9.526;2022-10-19T03:09:29;14.10;99.90
12039;DHT22;6080;48.818;9.526;2022-10-19T03:11:55;14.10;99.90
12039;DHT22;6080;48.818;9.526;2022-10-19T03:14:21;14.00;99.90
12039;DHT22;6080;48.818;9.526;2022-10-19T03:16:46;14.00;99.90
12039;DHT22;6080;48.818;9.526;2022-10-19T03:19:12;14.00;99.90
12039;DHT22;6080;48.818;9.526;2022-10-19T03:21:38;13.90;99.90
12039;DHT22;6080;48.818;9.526;2022-10-19T03:24:04;13.80;99.90
12039;DHT22;6080;48.818;9.526;2022-10-19T03:26:30;13.70;99.90
12039;DHT22;6080;48.818;9.526;2022-10-19T03:28:56;13.70;99.90
12039;DHT22;6080;48.818;9.526;2022-10-19T03:31:22;13.60;99.90
12039;DHT22;6080;48.818;9.526;2022-10-19T03:33:47;13.60;99.90
12039;DHT22;6080;48.818;9.526;2022-10-19T03:36:35;13.50;99.90
12039;DHT22;6080;48.818;9.526;2022-10-19T03:39:04;13.50;99.90
12039;DHT22;6080;48.818;9.526;2022-10-19T03:41:33;13.40;99.90
12039;DHT22;6080;48.818;9.526;2022-10-19T03:44:00;13.40;99.90
12039;DHT22;6080;48.818;9.526;2022-10-19T03:46:26;13.30;99.90
12039;DHT22;6080;48.818;9.526;2022-10-19T03:48:52;13.30;99.90
12039;DHT22;6080;48.818;9.526;2022-10-19T03:51:21;13.30;99.90
12039;DHT22;6080;48.818;9.526;2022-10-19T03:53:51;13.20;99.90
12039;DHT22;6080;48.818;9.526;2022-10-19T03:56:18;13.10;99.90
12039;DHT22;6080;48.818;9.526;2022-10-19T03:58:46;13.10;99.90
12039;DHT22;6080;48.818;9.526;2022-10-19T04:01:19;13.00;99.90
12039;DHT22;6080;48.818;9.526;2022-10-19T04:03:45;13.00;99.90
12039;DHT22;6080;48.818;9.526;2022-10-19T04:06:16;13.00;99.90
12039;DHT22;6080;48.818;9.526;2022-10-19T04:08:43;12.80;99.90
12039;DHT22;6080;48.818;9.526;2022-10-19T04:11:12;12.90;99.90
12039;DHT22;6080;48.818;9.526;2022-10-19T04:13:38;12.80;99.90
12039;DHT22;6080;48.818;9.526;2022-10-19T04:16:04;12.70;99.90
12039;DHT22;6080;48.818;9.526;2022-10-19T04:18:30;12.70;99.90
12039;DHT22;6080;48.818;9.526;2022-10-19T04:20:58;12.70;99.90
12039;DHT22;6080;48.818;9.526;2022-10-19T04:23:29;12.70;99.90
12039;DHT22;6080;48.818;9.526;2022-10-19T04:26:06;12.60;99.90
12039;DHT22;6080;48.818;9.526;2022-10-19T04:28:33;12.60;99.90
12039;DHT22;6080;48.818;9.526;2022-10-19T04:31:03;12.60;99.90
12039;DHT22;6080;48.818;9.526;2022-10-19T04:33:30;12.50;99.90
12039;DHT22;6080;48.818;9.526;2022-10-19T04:36:01;12.60;99.90
12039;DHT22;6080;48.818;9.526;2022-10-19T04:38:28;12.60;99.90
12039;DHT22;6080;48.818;9.526;2022-10-19T04:40:54;12.60;99.90
12039;DHT22;6080;48.818;9.526;2022-10-19T04:43:21;12.50;99.90
12039;DHT22;6080;48.818;9.526;2022-10-19T04:45:47;12.50;99.90
12039;DHT22;6080;48.818;9.526;2022-10-19T04:48:13;12.50;99.90
12039;DHT22;6080;48.818;9.526;2022-10-19T04:50:38;12.50;99.90
12039;DHT22;6080;48.818;9.526;2022-10-19T04:53:04;12.60;99.90
12039;DHT22;6080;48.818;9.526;2022-10-19T04:55:30;12.60;99.90
12039;DHT22;6080;48.818;9.526;2022-10-19T04:57:56;12.70;99.90
12039;DHT22;6080;48.818;9.526;2022-10-19T05:00:21;12.80;99.90
12039;DHT22;6080;48.818;9.526;2022-10-19T05:02:47;12.80;99.90
12039;DHT22;6080;48.818;9.526;2022-10-19T05:05:13;12.80;99.90
12039;DHT22;6080;48.818;9.526;2022-10-19T05:07:39;12.80;99.90
12039;DHT22;6080;48.818;9.526;2022-10-19T05:10:07;12.90;99.90
12039;DHT22;6080;48.818;9.526;2022-10-19T05:12:36;12.90;99.90
12039;DHT22;6080;48.818;9.526;2022-10-19T05:15:02;12.90;99.90
12039;DHT22;6080;48.818;9.526;2022-10-19T05:17:30;13.00;99.90
12039;DHT22;6080;48.818;9.526;2022-10-19T05:19:56;13.00;99.90
12039;DHT22;6080;48.818;9.526;2022-10-19T05:22:22;13.10;99.90
12039;DHT22;6080;48.818;9.526;2022-10-19T05:24:48;13.10;99.90
12039;DHT22;6080;48.818;9.526;2022-10-19T05:27:13;13.10;99.90
12039;DHT22;6080;48.818;9.526;2022-10-19T05:29:39;13.20;99.90
12039;DHT22;6080;48.818;9.526;2022-10-19T05:32:05;13.20;99.90
12039;DHT22;6080;48.818;9.526;2022-10-19T05:34:31;13.30;99.90
12039;DHT22;6080;48.818;9.526;2022-10-19T05:36:57;13.30;99.90
12039;DHT22;6080;48.818;9.526;2022-10-19T05:39:23;13.30;99.90
12039;DHT22;6080;48.818;9.526;2022-10-19T05:41:49;13.30;99.90
12039;DHT22;6080;48.818;9.526;2022-10-19T05:44:19;13.40;99.90
12039;DHT22;6080;48.818;9.526;2022-10-19T05:46:47;13.40;99.90
12039;DHT22;6080;48.818;9.526;2022-10-19T05:49:14;13.50;99.90
12039;DHT22;6080;48.818;9.526;2022-10-19T05:51:40;13.50;99.90
12039;DHT22;6080;48.818;9.526;2022-10-19T05:54:06;13.60;99.90
12039;DHT22;6080;48.818;9.526;2022-10-19T05:56:33;13.60;99.90
12039;DHT22;6080;48.818;9.526;2022-10-19T05:59:02;13.70;99.90
12039;DHT22;6080;48.818;9.526;2022-10-19T06:01:29;13.70;99.90
12039;DHT22;6080;48.818;9.526;2022-10-19T06:03:57;13.70;99.90
12039;DHT22;6080;48.818;9.526;2022-10-19T06:06:24;13.80;99.90
12039;DHT22;6080;48.818;9.526;2022-10-19T06:08:51;13.80;99.90
12039;DHT22;6080;48.818;9.526;2022-10-19T06:11:19;13.80;99.90
12039;DHT22;6080;48.818;9.526;2022-10-19T06:13:47;13.80;99.90
12039;DHT22;6080;48.818;9.526;2022-10-19T06:16:16;13.90;99.90
12039;DHT22;6080;48.818;9.526;2022-10-19T06:18:43;13.90;99.90
12039;DHT22;6080;48.818;9.526;2022-10-19T06:21:16;13.90;99.90
12039;DHT22;6080;48.818;9.526;2022-10-19T06:23:43;13.90;99.90
12039;DHT22;6080;48.818;9.526;2022-10-19T06:26:10;13.90;99.90
12039;DHT22;6080;48.818;9.526;2022-10-19T06:28:39;14.00;99.90
12039;DHT22;6080;48.818;9.526;2022-10-19T06:31:06;14.00;99.90
12039;DHT22;6080;48.818;9.526;2022-10-19T06:33:32;14.00;99.90
12039;DHT22;6080;48.818;9.526;2022-10-19T06:36:12;14.10;99.90
12039;DHT22;6080;48.818;9.526;2022-10-19T06:38:39;14.10;99.90
12039;DHT22;6080;48.818;9.526;2022-10-19T06:41:05;14.20;99.90
12039;DHT22;6080;48.818;9.526;2022-10-19T06:43:31;14.30;99.90
12039;DHT22;6080;48.818;9.526;2022-10-19T06:45:58;14.30;99.90
12039;DHT22;6080;48.818;9.526;2022-10-19T06:48:24;14.40;99.90
12039;DHT22;6080;48.818;9.526;2022-10-19T06:50:56;14.50;99.90
12039;DHT22;6080;48.818;9.526;2022-10-19T06:53:22;14.60;99.90
12039;DHT22;6080;48.818;9.526;2022-10-19T06:55:48;14.70;99.90
12039;DHT22;6080;48.818;9.526;2022-10-19T06:58:14;14.80;99.90
12039;DHT22;6080;48.818;9.526;2022-10-19T07:00:40;14.90;99.90
12039;DHT22;6080;48.818;9.526;2022-10-19T07:03:05;15.10;99.90
12039;DHT22;6080;48.818;9.526;2022-10-19T07:05:31;15.10;99.90
12039;DHT22;6080;48.818;9.526;2022-10-19T07:07:57;15.20;99.90
12039;DHT22;6080;48.818;9.526;2022-10-19T07:10:23;15.30;99.90
12039;DHT22;6080;48.818;9.526;2022-10-19T07:12:48;15.40;99.90
12039;DHT22;6080;48.818;9.526;2022-10-19T07:15:14;15.50;99.90
12039;DHT22;6080;48.818;9.526;2022-10-19T07:17:40;15.60;99.90
12039;DHT22;6080;48.818;9.526;2022-10-19T07:20:06;15.60;99.90
12039;DHT22;6080;48.818;9.526;2022-10-19T07:22:32;15.70;99.90
12039;DHT22;6080;48.818;9.526;2022-10-19T07:24:58;15.80;99.90
12039;DHT22;6080;48.818;9.526;2022-10-19T07:27:24;15.90;99.90
12039;DHT22;6080;48.818;9.526;2022-10-19T07:29:49;16.00;99.90
12039;DHT22;6080;48.818;9.526;2022-10-19T07:32:15;15.90;99.90
12039;DHT22;6080;48.818;9.526;2022-10-19T07:34:41;16.00;99.90
12039;DHT22;6080;48.818;9.526;2022-10-19T07:37:07;16.10;99.90
12039;DHT22;6080;48.818;9.526;2022-10-19T07:39:32;16.20;99.90
12039;DHT22;6080;48.818;9.526;2022-10-19T07:41:58;16.30;99.90
12039;DHT22;6080;48.818;9.526;2022-10-19T07:44:24;16.30;99.90
12039;DHT22;6080;48.818;9.526;2022-10-19T07:46:51;16.30;99.90
12039;DHT22;6080;48.818;9.526;2022-10-19T07:49:17;16.40;99.90
12039;DHT22;6080;48.818;9.526;2022-10-19T07:51:45;16.40;99.90
12039;DHT22;6080;48.818;9.526;2022-10-19T07:54:11;16.50;99.90
12039;DHT22;6080;48.818;9.526;2022-10-19T07:56:38;16.50;99.90
12039;DHT22;6080;48.818;9.526;2022-10-19T07:59:04;16.50;99.90
12039;DHT22;6080;48.818;9.526;2022-10-19T08:01:33;16.50;99.90
12039;DHT22;6080;48.818;9.526;2022-10-19T08:04:00;16.50;99.90
12039;DHT22;6080;48.818;9.526;2022-10-19T08:06:26;16.50;99.90
12039;DHT22;6080;48.818;9.526;2022-10-19T08:08:53;16.60;99.90
12039;DHT22;6080;48.818;9.526;2022-10-19T08:11:20;16.70;99.90
12039;DHT22;6080;48.818;9.526;2022-10-19T08:13:46;17.00;99.90
12039;DHT22;6080;48.818;9.526;2022-10-19T08:16:33;17.20;99.90
12039;DHT22;6080;48.818;9.526;2022-10-19T08:19:15;17.30;99.90
12039;DHT22;6080;48.818;9.526;2022-10-19T08:21:45;17.30;99.90
12039;DHT22;6080;48.818;9.526;2022-10-19T08:24:12;17.40;99.90
12039;DHT22;6080;48.818;9.526;2022-10-19T08:26:40;17.40;99.90
12039;DHT22;6080;48.818;9.526;2022-10-19T08:29:18;17.30;99.90
12039;DHT22;6080;48.818;9.526;2022-10-19T08:31:46;17.20;99.90
12039;DHT22;6080;48.818;9.526;2022-10-19T08:34:13;17.10;99.90
12039;DHT22;6080;48.818;9.526;2022-10-19T08:36:42;17.10;99.90
12039;DHT22;6080;48.818;9.526;2022-10-19T08:39:09;17.10;99.90
12039;DHT22;6080;48.818;9.526;2022-10-19T08:49:46;17.20;99.90
12039;DHT22;6080;48.818;9.526;2022-10-19T08:52:17;17.30;99.90
12039;DHT22;6080;48.818;9.526;2022-10-19T08:54:55;17.40;99.90
12039;DHT22;6080;48.818;9.526;2022-10-19T08:57:27;17.50;99.90
12039;DHT22;6080;48.818;9.526;2022-10-19T09:00:12;17.60;99.90
12039;DHT22;6080;48.818;9.526;2022-10-19T09:06:04;17.50;99.90
12039;DHT22;6080;48.818;9.526;2022-10-19T09:08:35;17.50;99.90
12039;DHT22;6080;48.818;9.526;2022-10-19T09:11:03;17.60;99.90
12039;DHT22;6080;48.818;9.526;2022-10-19T09:13:41;17.80;99.90
12039;DHT22;6080;48.818;9.526;2022-10-19T09:16:12;17.90;99.90
12039;DHT22;6080;48.818;9.526;2022-10-19T09:18:38;18.10;99.90
12039;DHT22;6080;48.818;9.526;2022-10-19T09:21:20;18.20;99.90
12039;DHT22;6080;48.818;9.526;2022-10-19T09:24:01;18.30;99.90
12039;DHT22;6080;48.818;9.526;2022-10-19T09:26:32;18.40;99.90
12039;DHT22;6080;48.818;9.526;2022-10-19T09:32:04;18.30;99.90
12039;DHT22;6080;48.818;9.526;2022-10-19T09:34:35;18.50;99.90
12039;DHT22;6080;48.818;9.526;2022-10-19T09:37:02;18.60;99.90
12039;DHT22;6080;48.818;9.526;2022-10-19T09:39:29;18.60;99.90
12039;DHT22;6080;48.818;9.526;2022-10-19T09:42:18;18.50;99.90
12039;DHT22;6080;48.818;9.526;2022-10-19T09:44:45;18.30;99.90
12039;DHT22;6080;48.818;9.526;2022-10-19T09:47:16;18.00;99.90
12039;DHT22;6080;48.818;9.526;2022-10-19T09:49:46;18.10;99.90
12039;DHT22;6080;48.818;9.526;2022-10-19T09:52:35;18.10;99.90
12039;DHT22;6080;48.818;9.526;2022-10-19T09:55:08;18.20;99.90
12039;DHT22;6080;48.818;9.526;2022-10-19T09:57:43;18.40;99.90
12039;DHT22;6080;48.818;9.526;2022-10-19T10:00:23;18.50;99.90
12039;DHT22;6080;48.818;9.526;2022-10-19T10:02:52;18.50;99.90
12039;DHT22;6080;48.818;9.526;2022-10-19T10:05:19;18.70;99.90
12039;DHT22;6080;48.818;9.526;2022-10-19T10:07:46;18.90;99.90
12039;DHT22;6080;48.818;9.526;2022-10-19T10:10:37;19.10;99.90
12039;DHT22;6080;48.818;9.526;2022-10-19T10:13:04;19.10;99.90
12039;DHT22;6080;48.818;9.526;2022-10-19T10:15:40;19.10;99.90
12039;DHT22;6080;48.818;9.526;2022-10-19T10:18:12;19.40;99.90
12039;DHT22;6080;48.818;9.526;2022-10-19T10:20:56;19.50;99.90
12039;DHT22;6080;48.818;9.526;2022-10-19T10:23:24;19.50;99.90
12039;DHT22;6080;48.818;9.526;2022-10-19T10:25:55;19.20;99.90
12039;DHT22;6080;48.818;9.526;2022-10-19T10:28:23;19.60;99.90
12039;DHT22;6080;48.818;9.526;2022-10-19T10:31:06;19.70;99.90
12039;DHT22;6080;48.818;9.526;2022-10-19T10:33:35;20.30;99.90
12039;DHT22;6080;48.818;9.526;2022-10-19T10:36:08;21.50;99.90
12039;DHT22;6080;48.818;9.526;2022-10-19T10:38:38;22.30;99.90
12039;DHT22;6080;48.818;9.526;2022-10-19T10:41:14;22.10;99.90
12039;DHT22;6080;48.818;9.526;2022-10-19T10:44:01;21.60;99.90
12039;DHT22;6080;48.818;9.526;2022-10-19T10:46:36;21.60;99.90
12039;DHT22;6080;48.818;9.526;2022-10-19T10:49:06;21.90;99.90
12039;DHT22;6080;48.818;9.526;2022-10-19T10:51:38;22.20;99.90
12039;DHT22;6080;48.818;9.526;2022-10-19T10:54:24;21.90;99.90
12039;DHT22;6080;48.818;9.526;2022-10-19T10:59:53;21.10;99.90
12039;DHT22;6080;48.818;9.526;2022-10-19T11:05:30;20.30;99.90
12039;DHT22;6080;48.818;9.526;2022-10-19T11:11:21;19.70;99.90
12039;DHT22;6080;48.818;9.526;2022-10-19T11:16:41;19.00;99.90
12039;DHT22;6080;48.818;9.526;2022-10-19T11:21:43;19.00;99.90
12039;DHT22;6080;48.818;9.526;2022-10-19T11:35:47;20.50;99.90
12039;DHT22;6080;48.818;9.526;2022-10-19T11:38:41;20.50;99.90
12039;DHT22;6080;48.818;9.526;2022-10-19T11:49:45;23.90;99.90
12039;DHT22;6080;48.818;9.526;2022-10-19T11:57:30;22.20;99.90
12039;DHT22;6080;48.818;9.526;2022-10-19T12:00:11;22.70;99.90
12039;DHT22;6080;48.818;9.526;2022-10-19T12:02:46;23.40;99.90
12039;DHT22;6080;48.818;9.526;2022-10-19T12:05:22;23.50;99.90
12039;DHT22;6080;48.818;9.526;2022-10-19T12:13:20;24.10;99.90
12039;DHT22;6080;48.818;9.526;2022-10-19T12:15:51;25.00;99.90
12039;DHT22;6080;48.818;9.526;2022-10-19T12:20:53;25.80;99.90
12039;DHT22;6080;48.818;9.526;2022-10-19T12:23:29;26.60;99.90
12039;DHT22;6080;48.818;9.526;2022-10-19T12:25:59;26.30;99.90
12039;DHT22;6080;48.818;9.526;2022-10-19T12:28:39;26.30;99.90
12039;DHT22;6080;48.818;9.526;2022-10-19T12:31:06;27.00;99.90
12039;DHT22;6080;48.818;9.526;2022-10-19T12:36:41;26.90;99.90
12039;DHT22;6080;48.818;9.526;2022-10-19T12:44:35;27.60;99.70
12039;DHT22;6080;48.818;9.526;2022-10-19T12:47:17;26.80;99.90
12039;DHT22;6080;48.818;9.526;2022-10-19T12:49:50;27.70;99.10
12039;DHT22;6080;48.818;9.526;2022-10-19T12:55:24;27.40;98.20
12039;DHT22;6080;48.818;9.526;2022-10-19T12:58:04;27.10;97.90
12039;DHT22;6080;48.818;9.526;2022-10-19T13:00:33;27.40;97.90
12039;DHT22;6080;48.818;9.526;2022-10-19T13:03:01;27.40;97.20
12039;DHT22;6080;48.818;9.526;2022-10-19T13:05:30;28.00;96.70
12039;DHT22;6080;48.818;9.526;2022-10-19T13:07:57;28.00;96.40
12039;DHT22;6080;48.818;9.526;2022-10-19T13:10:26;27.50;96.80
12039;DHT22;6080;48.818;9.526;2022-10-19T13:12:53;26.40;96.80
12039;DHT22;6080;48.818;9.526;2022-10-19T13:21:07;25.00;99.90
12039;DHT22;6080;48.818;9.526;2022-10-19T13:23:35;26.00;99.20
12039;DHT22;6080;48.818;9.526;2022-10-19T13:26:31;26.80;97.60
12039;DHT22;6080;48.818;9.526;2022-10-19T13:28:57;26.40;97.90
12039;DHT22;6080;48.818;9.526;2022-10-19T13:31:27;25.80;98.10
12039;DHT22;6080;48.818;9.526;2022-10-19T13:33:53;26.10;98.10
12039;DHT22;6080;48.818;9.526;2022-10-19T13:36:20;26.10;97.90
12039;DHT22;6080;48.818;9.526;2022-10-19T13:41:26;24.70;99.20
12039;DHT22;6080;48.818;9.526;2022-10-19T13:46:21;23.10;99.90
12039;DHT22;6080;48.818;9.526;2022-10-19T13:55:13;21.70;99.90
12039;DHT22;6080;48.818;9.526;2022-10-19T14:00:19;20.90;99.90
12039;DHT22;6080;48.818;9.526;2022-10-19T14:11:18;20.30;99.90
12039;DHT22;6080;48.818;9.526;2022-10-19T14:13:45;20.40;99.90
12039;DHT22;6080;48.818;9.526;2022-10-19T14:16:21;20.30;99.90
12039;DHT22;6080;48.818;9.526;2022-10-19T14:18:54;20.20;99.90
12039;DHT22;6080;48.818;9.526;2022-10-19T14:21:32;19.90;99.90
12039;DHT22;6080;48.818;9.526;2022-10-19T14:23:59;19.80;99.90
12039;DHT22;6080;48.818;9.526;2022-10-19T14:26:26;19.70;99.90
12039;DHT22;6080;48.818;9.526;2022-10-19T14:28:57;19.60;99.90
12039;DHT22;6080;48.818;9.526;2022-10-19T14:31:28;19.60;99.90
12039;DHT22;6080;48.818;9.526;2022-10-19T14:34:00;19.50;99.90
12039;DHT22;6080;48.818;9.526;2022-10-19T14:36:31;19.50;99.90
12039;DHT22;6080;48.818;9.526;2022-10-19T14:38:57;19.50;99.90
12039;DHT22;6080;48.818;9.526;2022-10-19T14:43:55;19.20;99.90
12039;DHT22;6080;48.818;9.526;2022-10-19T14:46:25;19.20;99.90
12039;DHT22;6080;48.818;9.526;2022-10-19T14:49:01;19.20;99.90
12039;DHT22;6080;48.818;9.526;2022-10-19T14:51:41;19.20;99.90
12039;DHT22;6080;48.818;9.526;2022-10-19T14:59:21;19.10;99.90
12039;DHT22;6080;48.818;9.526;2022-10-19T15:01:57;19.00;99.90
12039;DHT22;6080;48.818;9.526;2022-10-19T15:04:28;19.10;99.90
12039;DHT22;6080;48.818;9.526;2022-10-19T15:06:55;19.10;99.90
12039;DHT22;6080;48.818;9.526;2022-10-19T15:09:26;19.10;99.90
12039;DHT22;6080;48.818;9.526;2022-10-19T15:11:54;19.10;99.90
12039;DHT22;6080;48.818;9.526;2022-10-19T15:14:27;19.00;99.90
12039;DHT22;6080;48.818;9.526;2022-10-19T15:17:00;19.00;99.90
12039;DHT22;6080;48.818;9.526;2022-10-19T15:25:18;19.00;99.90
12039;DHT22;6080;48.818;9.526;2022-10-19T15:27:44;19.00;99.90
12039;DHT22;6080;48.818;9.526;2022-10-19T15:40:42;18.70;99.90
12039;DHT22;6080;48.818;9.526;2022-10-19T15:46:21;18.60;99.90
12039;DHT22;6080;48.818;9.526;2022-10-19T15:48:52;18.70;99.90
12039;DHT22;6080;48.818;9.526;2022-10-19T15:54:01;18.60;99.90
12039;DHT22;6080;48.818;9.526;2022-10-19T15:56:29;18.50;99.90
12039;DHT22;6080;48.818;9.526;2022-10-19T15:58:57;18.50;99.90
12039;DHT22;6080;48.818;9.526;2022-10-19T16:01:28;18.40;99.90
12039;DHT22;6080;48.818;9.526;2022-10-19T16:03:55;18.30;99.90
12039;DHT22;6080;48.818;9.526;2022-10-19T16:06:24;18.20;99.90
12039;DHT22;6080;48.818;9.526;2022-10-19T16:08:50;18.10;99.90
12039;DHT22;6080;48.818;9.526;2022-10-19T16:11:20;18.00;99.90
12039;DHT22;6080;48.818;9.526;2022-10-19T16:13:46;18.00;99.90
12039;DHT22;6080;48.818;9.526;2022-10-19T16:16:22;17.90;99.90
12039;DHT22;6080;48.818;9.526;2022-10-19T16:18:48;17.80;99.90
12039;DHT22;6080;48.818;9.526;2022-10-19T16:21:15;17.70;99.90
12039;DHT22;6080;48.818;9.526;2022-10-19T16:23:41;17.60;99.90
12039;DHT22;6080;48.818;9.526;2022-10-19T16:26:07;17.40;99.90
12039;DHT22;6080;48.818;9.526;2022-10-19T16:28:32;17.40;99.90
12039;DHT22;6080;48.818;9.526;2022-10-19T16:30:58;17.30;99.90
12039;DHT22;6080;48.818;9.526;2022-10-19T16:33:24;17.20;99.90
12039;DHT22;6080;48.818;9.526;2022-10-19T16:35:50;17.10;99.90
12039;DHT22;6080;48.818;9.526;2022-10-19T16:38:15;17.00;99.90
12039;DHT22;6080;48.818;9.526;2022-10-19T16:40:44;16.90;99.90
12039;DHT22;6080;48.818;9.526;2022-10-19T16:43:15;16.80;99.90
12039;DHT22;6080;48.818;9.526;2022-10-19T16:45:41;16.80;99.90
12039;DHT22;6080;48.818;9.526;2022-10-19T16:48:11;16.80;99.90
12039;DHT22;6080;48.818;9.526;2022-10-19T16:50:37;16.70;99.90
12039;DHT22;6080;48.818;9.526;2022-10-19T16:53:08;16.60;99.90
12039;DHT22;6080;48.818;9.526;2022-10-19T16:55:38;16.50;99.90
12039;DHT22;6080;48.818;9.526;2022-10-19T16:58:05;16.30;99.90
12039;DHT22;6080;48.818;9.526;2022-10-19T17:00:31;16.20;99.90
12039;DHT22;6080;48.818;9.526;2022-10-19T17:02:57;16.00;99.90
12039;DHT22;6080;48.818;9.526;2022-10-19T17:05:23;15.90;99.90
12039;DHT22;6080;48.818;9.526;2022-10-19T17:07:49;15.70;99.90
12039;DHT22;6080;48.818;9.526;2022-10-19T17:10:15;15.60;99.90
12039;DHT22;6080;48.818;9.526;2022-10-19T17:12:41;15.40;99.90
12039;DHT22;6080;48.818;9.526;2022-10-19T17:15:08;15.30;99.90
12039;DHT22;6080;48.818;9.526;2022-10-19T17:17:35;15.20;99.90
12039;DHT22;6080;48.818;9.526;2022-10-19T17:20:01;15.10;99.90
12039;DHT22;6080;48.818;9.526;2022-10-19T17:22:27;15.00;99.90
12039;DHT22;6080;48.818;9.526;2022-10-19T17:24:52;14.80;99.90
12039;DHT22;6080;48.818;9.526;2022-10-19T17:27:20;14.80;99.90
12039;DHT22;6080;48.818;9.526;2022-10-19T17:29:45;14.70;99.90
12039;DHT22;6080;48.818;9.526;2022-10-19T17:32:11;14.60;99.90
12039;DHT22;6080;48.818;9.526;2022-10-19T17:34:37;14.60;99.90
12039;DHT22;6080;48.818;9.526;2022-10-19T17:37:03;14.50;99.90
12039;DHT22;6080;48.818;9.526;2022-10-19T17:39:29;14.40;99.90
12039;DHT22;6080;48.818;9.526;2022-10-19T17:41:54;14.30;99.90
12039;DHT22;6080;48.818;9.526;2022-10-19T17:44:21;14.30;99.90
12039;DHT22;6080;48.818;9.526;2022-10-19T17:46:48;14.20;99.90
12039;DHT22;6080;48.818;9.526;2022-10-19T17:49:13;14.10;99.90
12039;DHT22;6080;48.818;9.526;2022-10-19T17:51:39;14.00;99.90
12039;DHT22;6080;48.818;9.526;2022-10-19T17:54:07;14.00;99.90
12039;DHT22;6080;48.818;9.526;2022-10-19T17:56:34;13.90;99.90
12039;DHT22;6080;48.818;9.526;2022-10-19T17:59:00;13.70;99.90
12039;DHT22;6080;48.818;9.526;2022-10-19T18:01:27;13.60;99.90
12039;DHT22;6080;48.818;9.526;2022-10-19T18:03:54;13.50;99.90
12039;DHT22;6080;48.818;9.526;2022-10-19T18:06:21;13.40;99.90
12039;DHT22;6080;48.818;9.526;2022-10-19T18:08:51;13.40;99.90
12039;DHT22;6080;48.818;9.526;2022-10-19T18:11:21;13.30;99.90
12039;DHT22;6080;48.818;9.526;2022-10-19T18:13:49;13.30;99.90
12039;DHT22;6080;48.818;9.526;2022-10-19T18:16:23;13.30;99.90
12039;DHT22;6080;48.818;9.526;2022-10-19T18:18:51;13.30;99.90
12039;DHT22;6080;48.818;9.526;2022-10-19T18:21:20;13.30;99.90
12039;DHT22;6080;48.818;9.526;2022-10-19T18:23:47;13.30;99.90
12039;DHT22;6080;48.818;9.526;2022-10-19T18:26:15;13.20;99.90
12039;DHT22;6080;48.818;9.526;2022-10-19T18:28:45;13.20;99.90